sensor_id;sensor_type;location;lat;lon;timestamp;P1;durP1;ratioP1;P2;durP2;ratioP2
50417;SDS011;36346;48.280;14.292;2023-06-10T00:01:56;10.62;;;10.62;;
50417;SDS011;36346;48.280;14.292;2023-06-10T00:04:27;10.43;;;10.43;;
50417;SDS011;36346;48.280;14.292;2023-06-10T00:06:55;10.87;;;10.87;;
50417;SDS011;36346;48.280;14.292;2023-06-10T00:09:24;10.37;;;10.37;;
50417;SDS011;36346;48.280;14.292;2023-06-10T00:11:53;10.89;;;10.89;;
50417;SDS011;36346;48.280;14.292;2023-06-10T00:14:21;11.23;;;11.23;;
50417;SDS011;36346;48.280;14.292;2023-06-10T00:16:49;10.94;;;10.94;;
50417;SDS011;36346;48.280;14.292;2023-06-10T00:19:17;11.28;;;11.28;;
50417;SDS011;36346;48.280;14.292;2023-06-10T00:21:46;11.33;;;11.33;;
50417;SDS011;36346;48.280;14.292;2023-06-10T00:24:14;11.00;;;11.00;;
50417;SDS011;36346;48.280;14.292;2023-06-10T00:26:42;11.27;;;11.27;;
50417;SDS011;36346;48.280;14.292;2023-06-10T00:29:10;10.74;;;10.74;;
50417;SDS011;36346;48.280;14.292;2023-06-10T00:31:38;10.95;;;10.95;;
50417;SDS011;36346;48.280;14.292;2023-06-10T00:34:07;10.70;;;10.70;;
50417;SDS011;36346;48.280;14.292;2023-06-10T00:36:35;10.39;;;10.39;;
50417;SDS011;36346;48.280;14.292;2023-06-10T00:39:03;10.60;;;10.60;;
50417;SDS011;36346;48.280;14.292;2023-06-10T00:41:32;10.04;;;10.04;;
50417;SDS011;36346;48.280;14.292;2023-06-10T00:44:01;10.15;;;10.15;;
50417;SDS011;36346;48.280;14.292;2023-06-10T00:46:29;9.97;;;9.97;;
50417;SDS011;36346;48.280;14.292;2023-06-10T00:49:00;10.06;;;10.06;;
50417;SDS011;36346;48.280;14.292;2023-06-10T00:51:28;10.06;;;10.06;;
50417;SDS011;36346;48.280;14.292;2023-06-10T00:53:56;9.73;;;9.73;;
50417;SDS011;36346;48.280;14.292;2023-06-10T00:56:26;9.40;;;9.40;;
50417;SDS011;36346;48.280;14.292;2023-06-10T00:58:56;9.46;;;9.46;;
50417;SDS011;36346;48.280;14.292;2023-06-10T01:01:24;9.61;;;9.61;;
50417;SDS011;36346;48.280;14.292;2023-06-10T01:03:53;9.49;;;9.49;;
50417;SDS011;36346;48.280;14.292;2023-06-10T01:06:29;9.67;;;9.67;;
50417;SDS011;36346;48.280;14.292;2023-06-10T01:11:58;10.00;;;10.00;;
50417;SDS011;36346;48.280;14.292;2023-06-10T01:14:30;9.61;;;9.61;;
50417;SDS011;36346;48.280;14.292;2023-06-10T01:17:00;9.51;;;9.51;;
50417;SDS011;36346;48.280;14.292;2023-06-10T01:19:29;9.42;;;9.42;;
50417;SDS011;36346;48.280;14.292;2023-06-10T01:21:59;9.74;;;9.74;;
50417;SDS011;36346;48.280;14.292;2023-06-10T01:24:28;9.93;;;9.93;;
50417;SDS011;36346;48.280;14.292;2023-06-10T01:26:56;9.85;;;9.85;;
50417;SDS011;36346;48.280;14.292;2023-06-10T01:29:33;9.88;;;9.88;;
50417;SDS011;36346;48.280;14.292;2023-06-10T01:32:12;9.95;;;9.95;;
50417;SDS011;36346;48.280;14.292;2023-06-10T01:34:49;9.81;;;9.81;;
50417;SDS011;36346;48.280;14.292;2023-06-10T01:37:19;9.66;;;9.66;;
50417;SDS011;36346;48.280;14.292;2023-06-10T01:39:51;10.02;;;10.02;;
50417;SDS011;36346;48.280;14.292;2023-06-10T01:42:20;9.48;;;9.48;;
50417;SDS011;36346;48.280;14.292;2023-06-10T01:44:48;9.21;;;9.21;;
50417;SDS011;36346;48.280;14.292;2023-06-10T01:47:16;9.85;;;9.85;;
50417;SDS011;36346;48.280;14.292;2023-06-10T01:49:44;9.46;;;9.46;;
50417;SDS011;36346;48.280;14.292;2023-06-10T01:52:12;9.58;;;9.58;;
50417;SDS011;36346;48.280;14.292;2023-06-10T01:54:40;9.08;;;9.08;;
50417;SDS011;36346;48.280;14.292;2023-06-10T01:57:08;8.89;;;8.89;;
50417;SDS011;36346;48.280;14.292;2023-06-10T01:59:36;9.17;;;9.17;;
50417;SDS011;36346;48.280;14.292;2023-06-10T02:02:05;9.00;;;9.00;;
50417;SDS011;36346;48.280;14.292;2023-06-10T02:04:33;9.01;;;9.01;;
50417;SDS011;36346;48.280;14.292;2023-06-10T02:07:02;9.02;;;9.02;;
50417;SDS011;36346;48.280;14.292;2023-06-10T02:09:33;9.66;;;9.66;;
50417;SDS011;36346;48.280;14.292;2023-06-10T02:12:03;9.37;;;9.37;;
50417;SDS011;36346;48.280;14.292;2023-06-10T02:14:32;9.37;;;9.37;;
50417;SDS011;36346;48.280;14.292;2023-06-10T02:17:00;9.52;;;9.52;;
50417;SDS011;36346;48.280;14.292;2023-06-10T02:19:28;9.59;;;9.59;;
50417;SDS011;36346;48.280;14.292;2023-06-10T02:21:58;9.50;;;9.50;;
50417;SDS011;36346;48.280;14.292;2023-06-10T02:24:26;9.41;;;9.41;;
50417;SDS011;36346;48.280;14.292;2023-06-10T02:26:54;9.89;;;9.89;;
50417;SDS011;36346;48.280;14.292;2023-06-10T02:29:23;9.59;;;9.59;;
50417;SDS011;36346;48.280;14.292;2023-06-10T02:31:51;10.21;;;10.21;;
50417;SDS011;36346;48.280;14.292;2023-06-10T02:34:20;10.12;;;10.12;;
50417;SDS011;36346;48.280;14.292;2023-06-10T02:36:48;10.62;;;10.62;;
50417;SDS011;36346;48.280;14.292;2023-06-10T02:39:21;10.18;;;10.18;;
50417;SDS011;36346;48.280;14.292;2023-06-10T02:41:50;10.22;;;10.22;;
50417;SDS011;36346;48.280;14.292;2023-06-10T02:44:20;10.52;;;10.52;;
50417;SDS011;36346;48.280;14.292;2023-06-10T02:46:49;10.48;;;10.48;;
50417;SDS011;36346;48.280;14.292;2023-06-10T02:49:18;10.42;;;10.42;;
50417;SDS011;36346;48.280;14.292;2023-06-10T02:51:47;10.18;;;10.18;;
50417;SDS011;36346;48.280;14.292;2023-06-10T02:54:15;10.43;;;10.43;;
50417;SDS011;36346;48.280;14.292;2023-06-10T02:56:44;10.38;;;10.38;;
50417;SDS011;36346;48.280;14.292;2023-06-10T02:59:18;10.31;;;10.31;;
50417;SDS011;36346;48.280;14.292;2023-06-10T03:01:47;10.49;;;10.49;;
50417;SDS011;36346;48.280;14.292;2023-06-10T03:04:15;10.40;;;10.40;;
50417;SDS011;36346;48.280;14.292;2023-06-10T03:06:52;10.33;;;10.33;;
50417;SDS011;36346;48.280;14.292;2023-06-10T03:09:29;10.29;;;10.29;;
50417;SDS011;36346;48.280;14.292;2023-06-10T03:11:59;9.97;;;9.97;;
50417;SDS011;36346;48.280;14.292;2023-06-10T03:14:32;9.88;;;9.88;;
50417;SDS011;36346;48.280;14.292;2023-06-10T03:17:00;9.94;;;9.94;;
50417;SDS011;36346;48.280;14.292;2023-06-10T03:19:28;10.48;;;10.48;;
50417;SDS011;36346;48.280;14.292;2023-06-10T03:22:12;10.76;;;10.76;;
50417;SDS011;36346;48.280;14.292;2023-06-10T03:24:55;10.73;;;10.73;;
50417;SDS011;36346;48.280;14.292;2023-06-10T03:27:25;11.31;;;11.31;;
50417;SDS011;36346;48.280;14.292;2023-06-10T03:30:00;11.09;;;11.09;;
50417;SDS011;36346;48.280;14.292;2023-06-10T03:32:28;10.54;;;10.54;;
50417;SDS011;36346;48.280;14.292;2023-06-10T03:34:56;11.22;;;11.22;;
50417;SDS011;36346;48.280;14.292;2023-06-10T03:37:26;11.67;;;11.67;;
50417;SDS011;36346;48.280;14.292;2023-06-10T03:39:54;11.54;;;11.54;;
50417;SDS011;36346;48.280;14.292;2023-06-10T03:42:23;11.12;;;11.12;;
50417;SDS011;36346;48.280;14.292;2023-06-10T03:44:51;11.64;;;11.64;;
50417;SDS011;36346;48.280;14.292;2023-06-10T03:47:19;11.28;;;11.28;;
50417;SDS011;36346;48.280;14.292;2023-06-10T03:49:48;11.33;;;11.33;;
50417;SDS011;36346;48.280;14.292;2023-06-10T03:52:17;11.29;;;11.29;;
50417;SDS011;36346;48.280;14.292;2023-06-10T03:54:45;11.73;;;11.73;;
50417;SDS011;36346;48.280;14.292;2023-06-10T03:57:13;11.23;;;11.23;;
50417;SDS011;36346;48.280;14.292;2023-06-10T03:59:41;11.37;;;11.37;;
50417;SDS011;36346;48.280;14.292;2023-06-10T04:02:09;11.32;;;11.32;;
50417;SDS011;36346;48.280;14.292;2023-06-10T04:04:39;11.90;;;11.90;;
50417;SDS011;36346;48.280;14.292;2023-06-10T04:07:08;11.69;;;11.69;;
50417;SDS011;36346;48.280;14.292;2023-06-10T04:09:36;11.58;;;11.58;;
50417;SDS011;36346;48.280;14.292;2023-06-10T04:12:05;11.76;;;11.76;;
50417;SDS011;36346;48.280;14.292;2023-06-10T04:14:37;11.65;;;11.65;;
50417;SDS011;36346;48.280;14.292;2023-06-10T04:17:08;12.66;;;12.66;;
50417;SDS011;36346;48.280;14.292;2023-06-10T04:19:37;12.26;;;12.26;;
50417;SDS011;36346;48.280;14.292;2023-06-10T04:22:06;12.46;;;12.46;;
50417;SDS011;36346;48.280;14.292;2023-06-10T04:24:34;12.09;;;12.09;;
50417;SDS011;36346;48.280;14.292;2023-06-10T04:27:03;11.37;;;11.37;;
50417;SDS011;36346;48.280;14.292;2023-06-10T04:29:31;11.59;;;11.59;;
50417;SDS011;36346;48.280;14.292;2023-06-10T04:31:59;11.81;;;11.80;;
50417;SDS011;36346;48.280;14.292;2023-06-10T04:34:31;11.29;;;11.29;;
50417;SDS011;36346;48.280;14.292;2023-06-10T04:36:59;11.37;;;11.37;;
50417;SDS011;36346;48.280;14.292;2023-06-10T04:39:28;11.60;;;11.60;;
50417;SDS011;36346;48.280;14.292;2023-06-10T04:41:56;11.32;;;11.32;;
50417;SDS011;36346;48.280;14.292;2023-06-10T04:44:25;12.20;;;12.20;;
50417;SDS011;36346;48.280;14.292;2023-06-10T04:46:53;12.50;;;12.50;;
50417;SDS011;36346;48.280;14.292;2023-06-10T04:49:23;11.95;;;11.95;;
50417;SDS011;36346;48.280;14.292;2023-06-10T04:51:51;12.84;;;12.84;;
50417;SDS011;36346;48.280;14.292;2023-06-10T04:54:19;12.97;;;12.97;;
50417;SDS011;36346;48.280;14.292;2023-06-10T04:56:47;14.67;;;14.67;;
50417;SDS011;36346;48.280;14.292;2023-06-10T04:59:15;15.96;;;15.96;;
50417;SDS011;36346;48.280;14.292;2023-06-10T05:01:43;15.82;;;15.82;;
50417;SDS011;36346;48.280;14.292;2023-06-10T05:04:12;15.55;;;15.55;;
50417;SDS011;36346;48.280;14.292;2023-06-10T05:06:40;14.95;;;14.95;;
50417;SDS011;36346;48.280;14.292;2023-06-10T05:09:09;15.63;;;15.63;;
50417;SDS011;36346;48.280;14.292;2023-06-10T05:11:37;17.04;;;17.04;;
50417;SDS011;36346;48.280;14.292;2023-06-10T05:14:05;17.37;;;17.35;;
50417;SDS011;36346;48.280;14.292;2023-06-10T05:16:33;17.97;;;17.96;;
50417;SDS011;36346;48.280;14.292;2023-06-10T05:19:01;17.46;;;17.46;;
50417;SDS011;36346;48.280;14.292;2023-06-10T05:21:34;17.86;;;17.86;;
50417;SDS011;36346;48.280;14.292;2023-06-10T05:24:02;17.51;;;17.50;;
50417;SDS011;36346;48.280;14.292;2023-06-10T05:26:31;16.61;;;16.61;;
50417;SDS011;36346;48.280;14.292;2023-06-10T05:29:00;16.00;;;16.00;;
50417;SDS011;36346;48.280;14.292;2023-06-10T05:31:28;16.15;;;16.15;;
50417;SDS011;36346;48.280;14.292;2023-06-10T05:33:56;15.94;;;15.93;;
50417;SDS011;36346;48.280;14.292;2023-06-10T05:36:25;16.05;;;16.05;;
50417;SDS011;36346;48.280;14.292;2023-06-10T05:38:54;15.37;;;15.37;;
50417;SDS011;36346;48.280;14.292;2023-06-10T05:41:22;16.68;;;16.68;;
50417;SDS011;36346;48.280;14.292;2023-06-10T05:43:50;16.95;;;16.95;;
50417;SDS011;36346;48.280;14.292;2023-06-10T05:46:18;18.45;;;18.45;;
50417;SDS011;36346;48.280;14.292;2023-06-10T05:48:47;19.72;;;19.72;;
50417;SDS011;36346;48.280;14.292;2023-06-10T05:51:15;19.57;;;19.51;;
50417;SDS011;36346;48.280;14.292;2023-06-10T05:53:43;18.85;;;18.85;;
50417;SDS011;36346;48.280;14.292;2023-06-10T05:56:14;18.89;;;18.89;;
50417;SDS011;36346;48.280;14.292;2023-06-10T05:58:42;19.01;;;19.01;;
50417;SDS011;36346;48.280;14.292;2023-06-10T06:01:10;18.29;;;18.28;;
50417;SDS011;36346;48.280;14.292;2023-06-10T06:03:38;17.68;;;17.68;;
50417;SDS011;36346;48.280;14.292;2023-06-10T06:06:06;17.71;;;17.71;;
50417;SDS011;36346;48.280;14.292;2023-06-10T06:08:34;17.18;;;17.18;;
50417;SDS011;36346;48.280;14.292;2023-06-10T06:11:02;16.62;;;16.62;;
50417;SDS011;36346;48.280;14.292;2023-06-10T06:13:30;16.65;;;16.65;;
50417;SDS011;36346;48.280;14.292;2023-06-10T06:15:58;16.84;;;16.84;;
50417;SDS011;36346;48.280;14.292;2023-06-10T06:18:26;17.31;;;17.31;;
50417;SDS011;36346;48.280;14.292;2023-06-10T06:20:54;18.12;;;18.12;;
50417;SDS011;36346;48.280;14.292;2023-06-10T06:23:22;18.74;;;18.74;;
50417;SDS011;36346;48.280;14.292;2023-06-10T06:25:51;18.21;;;18.21;;
50417;SDS011;36346;48.280;14.292;2023-06-10T06:28:19;17.95;;;17.94;;
50417;SDS011;36346;48.280;14.292;2023-06-10T06:30:48;16.34;;;16.30;;
50417;SDS011;36346;48.280;14.292;2023-06-10T06:33:16;16.55;;;16.49;;
50417;SDS011;36346;48.280;14.292;2023-06-10T06:35:44;14.91;;;14.90;;
50417;SDS011;36346;48.280;14.292;2023-06-10T06:38:12;14.58;;;14.58;;
50417;SDS011;36346;48.280;14.292;2023-06-10T06:40:40;14.49;;;14.49;;
50417;SDS011;36346;48.280;14.292;2023-06-10T06:43:08;15.35;;;15.34;;
50417;SDS011;36346;48.280;14.292;2023-06-10T06:45:39;15.14;;;15.14;;
50417;SDS011;36346;48.280;14.292;2023-06-10T06:48:07;14.76;;;14.76;;
50417;SDS011;36346;48.280;14.292;2023-06-10T06:50:35;14.45;;;14.45;;
50417;SDS011;36346;48.280;14.292;2023-06-10T06:53:04;14.37;;;14.37;;
50417;SDS011;36346;48.280;14.292;2023-06-10T06:55:32;14.76;;;14.76;;
50417;SDS011;36346;48.280;14.292;2023-06-10T06:58:00;15.16;;;15.16;;
50417;SDS011;36346;48.280;14.292;2023-06-10T07:00:31;14.90;;;14.89;;
50417;SDS011;36346;48.280;14.292;2023-06-10T07:02:59;15.64;;;15.64;;
50417;SDS011;36346;48.280;14.292;2023-06-10T07:05:28;15.61;;;15.61;;
50417;SDS011;36346;48.280;14.292;2023-06-10T07:07:56;16.91;;;16.91;;
50417;SDS011;36346;48.280;14.292;2023-06-10T07:10:24;18.62;;;18.60;;
50417;SDS011;36346;48.280;14.292;2023-06-10T07:12:53;17.50;;;17.45;;
50417;SDS011;36346;48.280;14.292;2023-06-10T07:15:21;17.16;;;17.16;;
50417;SDS011;36346;48.280;14.292;2023-06-10T07:17:49;19.30;;;19.26;;
50417;SDS011;36346;48.280;14.292;2023-06-10T07:20:18;19.58;;;19.58;;
50417;SDS011;36346;48.280;14.292;2023-06-10T07:22:46;19.69;;;19.69;;
50417;SDS011;36346;48.280;14.292;2023-06-10T07:25:14;20.55;;;20.54;;
50417;SDS011;36346;48.280;14.292;2023-06-10T07:27:43;19.70;;;19.70;;
50417;SDS011;36346;48.280;14.292;2023-06-10T07:30:11;18.93;;;18.93;;
50417;SDS011;36346;48.280;14.292;2023-06-10T07:32:39;18.21;;;18.21;;
50417;SDS011;36346;48.280;14.292;2023-06-10T07:35:08;19.36;;;19.36;;
50417;SDS011;36346;48.280;14.292;2023-06-10T07:37:40;18.32;;;18.30;;
50417;SDS011;36346;48.280;14.292;2023-06-10T07:40:08;17.71;;;17.69;;
50417;SDS011;36346;48.280;14.292;2023-06-10T07:42:37;15.68;;;15.67;;
50417;SDS011;36346;48.280;14.292;2023-06-10T07:45:05;14.21;;;14.21;;
50417;SDS011;36346;48.280;14.292;2023-06-10T07:47:35;13.53;;;13.53;;
50417;SDS011;36346;48.280;14.292;2023-06-10T07:50:03;12.27;;;12.27;;
50417;SDS011;36346;48.280;14.292;2023-06-10T07:52:31;11.73;;;11.73;;
50417;SDS011;36346;48.280;14.292;2023-06-10T07:54:59;10.87;;;10.87;;
50417;SDS011;36346;48.280;14.292;2023-06-10T07:57:27;10.26;;;10.26;;
50417;SDS011;36346;48.280;14.292;2023-06-10T07:59:55;10.48;;;10.48;;
50417;SDS011;36346;48.280;14.292;2023-06-10T08:02:25;10.18;;;10.18;;
50417;SDS011;36346;48.280;14.292;2023-06-10T08:04:53;10.14;;;10.14;;
50417;SDS011;36346;48.280;14.292;2023-06-10T08:07:21;9.75;;;9.75;;
50417;SDS011;36346;48.280;14.292;2023-06-10T08:09:49;10.25;;;10.25;;
50417;SDS011;36346;48.280;14.292;2023-06-10T08:12:17;9.90;;;9.90;;
50417;SDS011;36346;48.280;14.292;2023-06-10T08:14:46;10.31;;;10.31;;
50417;SDS011;36346;48.280;14.292;2023-06-10T08:17:14;9.84;;;9.84;;
50417;SDS011;36346;48.280;14.292;2023-06-10T08:19:42;9.95;;;9.95;;
50417;SDS011;36346;48.280;14.292;2023-06-10T08:22:10;10.23;;;10.23;;
50417;SDS011;36346;48.280;14.292;2023-06-10T08:24:38;10.38;;;10.38;;
50417;SDS011;36346;48.280;14.292;2023-06-10T08:27:06;10.68;;;10.68;;
50417;SDS011;36346;48.280;14.292;2023-06-10T08:29:34;11.43;;;11.43;;
50417;SDS011;36346;48.280;14.292;2023-06-10T08:32:02;13.43;;;13.43;;
50417;SDS011;36346;48.280;14.292;2023-06-10T08:34:32;10.58;;;10.58;;
50417;SDS011;36346;48.280;14.292;2023-06-10T08:37:02;10.68;;;10.68;;
50417;SDS011;36346;48.280;14.292;2023-06-10T08:39:30;10.37;;;10.37;;
50417;SDS011;36346;48.280;14.292;2023-06-10T08:44:53;10.46;;;10.46;;
50417;SDS011;36346;48.280;14.292;2023-06-10T08:47:32;10.36;;;10.36;;
50417;SDS011;36346;48.280;14.292;2023-06-10T08:50:06;10.50;;;10.50;;
50417;SDS011;36346;48.280;14.292;2023-06-10T08:52:41;10.56;;;10.56;;
50417;SDS011;36346;48.280;14.292;2023-06-10T08:55:12;10.70;;;10.70;;
50417;SDS011;36346;48.280;14.292;2023-06-10T08:57:45;10.59;;;10.59;;
50417;SDS011;36346;48.280;14.292;2023-06-10T09:00:15;10.19;;;10.19;;
50417;SDS011;36346;48.280;14.292;2023-06-10T09:02:43;10.65;;;10.65;;
50417;SDS011;36346;48.280;14.292;2023-06-10T09:05:12;10.35;;;10.35;;
50417;SDS011;36346;48.280;14.292;2023-06-10T09:07:41;10.76;;;10.76;;
50417;SDS011;36346;48.280;14.292;2023-06-10T09:10:10;9.98;;;9.98;;
50417;SDS011;36346;48.280;14.292;2023-06-10T09:12:40;11.59;;;11.59;;
50417;SDS011;36346;48.280;14.292;2023-06-10T09:15:08;12.92;;;12.92;;
50417;SDS011;36346;48.280;14.292;2023-06-10T09:17:37;12.87;;;12.87;;
50417;SDS011;36346;48.280;14.292;2023-06-10T09:20:06;12.26;;;12.26;;
50417;SDS011;36346;48.280;14.292;2023-06-10T09:22:37;11.68;;;11.68;;
50417;SDS011;36346;48.280;14.292;2023-06-10T09:25:07;10.93;;;10.93;;
50417;SDS011;36346;48.280;14.292;2023-06-10T09:27:51;11.00;;;11.00;;
50417;SDS011;36346;48.280;14.292;2023-06-10T09:30:24;10.56;;;10.56;;
50417;SDS011;36346;48.280;14.292;2023-06-10T09:32:58;10.77;;;10.77;;
50417;SDS011;36346;48.280;14.292;2023-06-10T09:35:29;11.34;;;11.34;;
50417;SDS011;36346;48.280;14.292;2023-06-10T09:37:58;11.20;;;11.20;;
50417;SDS011;36346;48.280;14.292;2023-06-10T09:40:28;11.23;;;11.23;;
50417;SDS011;36346;48.280;14.292;2023-06-10T09:42:57;11.50;;;11.50;;
50417;SDS011;36346;48.280;14.292;2023-06-10T09:45:29;12.53;;;12.53;;
50417;SDS011;36346;48.280;14.292;2023-06-10T09:47:59;12.08;;;12.08;;
50417;SDS011;36346;48.280;14.292;2023-06-10T09:50:29;11.87;;;11.87;;
50417;SDS011;36346;48.280;14.292;2023-06-10T09:53:01;11.11;;;11.11;;
50417;SDS011;36346;48.280;14.292;2023-06-10T09:55:36;11.32;;;11.32;;
50417;SDS011;36346;48.280;14.292;2023-06-10T09:58:09;10.61;;;10.61;;
50417;SDS011;36346;48.280;14.292;2023-06-10T10:00:37;9.93;;;9.93;;
50417;SDS011;36346;48.280;14.292;2023-06-10T10:03:05;9.14;;;9.14;;
50417;SDS011;36346;48.280;14.292;2023-06-10T10:05:34;9.66;;;9.66;;
50417;SDS011;36346;48.280;14.292;2023-06-10T10:08:03;9.59;;;9.59;;
50417;SDS011;36346;48.280;14.292;2023-06-10T10:10:31;9.43;;;9.43;;
50417;SDS011;36346;48.280;14.292;2023-06-10T10:12:59;9.35;;;9.35;;
50417;SDS011;36346;48.280;14.292;2023-06-10T10:15:28;8.75;;;8.75;;
50417;SDS011;36346;48.280;14.292;2023-06-10T10:20:34;8.83;;;8.83;;
50417;SDS011;36346;48.280;14.292;2023-06-10T10:23:05;9.01;;;9.01;;
50417;SDS011;36346;48.280;14.292;2023-06-10T10:25:37;8.99;;;8.99;;
50417;SDS011;36346;48.280;14.292;2023-06-10T10:28:10;8.57;;;8.57;;
50417;SDS011;36346;48.280;14.292;2023-06-10T10:30:40;8.69;;;8.69;;
50417;SDS011;36346;48.280;14.292;2023-06-10T10:33:18;9.14;;;9.14;;
50417;SDS011;36346;48.280;14.292;2023-06-10T10:35:47;9.55;;;9.55;;
50417;SDS011;36346;48.280;14.292;2023-06-10T10:38:16;10.49;;;10.49;;
50417;SDS011;36346;48.280;14.292;2023-06-10T10:40:45;10.24;;;10.24;;
50417;SDS011;36346;48.280;14.292;2023-06-10T10:43:14;10.12;;;10.12;;
50417;SDS011;36346;48.280;14.292;2023-06-10T10:45:55;9.67;;;9.67;;
50417;SDS011;36346;48.280;14.292;2023-06-10T10:48:26;9.10;;;9.10;;
50417;SDS011;36346;48.280;14.292;2023-06-10T10:50:59;8.85;;;8.85;;
50417;SDS011;36346;48.280;14.292;2023-06-10T10:53:27;9.13;;;9.13;;
50417;SDS011;36346;48.280;14.292;2023-06-10T10:55:59;10.10;;;10.10;;
50417;SDS011;36346;48.280;14.292;2023-06-10T10:58:32;10.38;;;10.38;;
50417;SDS011;36346;48.280;14.292;2023-06-10T11:01:07;13.26;;;13.26;;
50417;SDS011;36346;48.280;14.292;2023-06-10T11:03:44;14.18;;;14.18;;
50417;SDS011;36346;48.280;14.292;2023-06-10T11:06:15;13.92;;;13.92;;
50417;SDS011;36346;48.280;14.292;2023-06-10T11:08:46;11.75;;;11.75;;
50417;SDS011;36346;48.280;14.292;2023-06-10T11:11:19;9.51;;;9.51;;
50417;SDS011;36346;48.280;14.292;2023-06-10T11:16:30;9.01;;;9.01;;
50417;SDS011;36346;48.280;14.292;2023-06-10T11:19:09;8.84;;;8.84;;
50417;SDS011;36346;48.280;14.292;2023-06-10T11:24:31;9.89;;;9.89;;
50417;SDS011;36346;48.280;14.292;2023-06-10T11:32:35;11.32;;;11.32;;
50417;SDS011;36346;48.280;14.292;2023-06-10T11:35:03;11.60;;;11.60;;
50417;SDS011;36346;48.280;14.292;2023-06-10T11:37:32;12.36;;;12.36;;
50417;SDS011;36346;48.280;14.292;2023-06-10T11:40:00;14.18;;;14.18;;
50417;SDS011;36346;48.280;14.292;2023-06-10T11:42:30;15.26;;;15.26;;
50417;SDS011;36346;48.280;14.292;2023-06-10T11:44:58;15.32;;;15.32;;
50417;SDS011;36346;48.280;14.292;2023-06-10T11:47:27;13.85;;;13.85;;
50417;SDS011;36346;48.280;14.292;2023-06-10T11:49:56;13.27;;;13.27;;
50417;SDS011;36346;48.280;14.292;2023-06-10T11:52:28;11.31;;;11.31;;
50417;SDS011;36346;48.280;14.292;2023-06-10T11:55:00;10.21;;;10.21;;
50417;SDS011;36346;48.280;14.292;2023-06-10T11:57:28;9.78;;;9.78;;
50417;SDS011;36346;48.280;14.292;2023-06-10T11:59:56;8.68;;;8.68;;
50417;SDS011;36346;48.280;14.292;2023-06-10T12:02:25;8.07;;;8.07;;
50417;SDS011;36346;48.280;14.292;2023-06-10T12:04:53;7.52;;;7.52;;
50417;SDS011;36346;48.280;14.292;2023-06-10T12:07:21;7.84;;;7.84;;
50417;SDS011;36346;48.280;14.292;2023-06-10T12:09:59;7.89;;;7.89;;
50417;SDS011;36346;48.280;14.292;2023-06-10T12:12:48;8.48;;;8.48;;
50417;SDS011;36346;48.280;14.292;2023-06-10T12:15:23;8.53;;;8.53;;
50417;SDS011;36346;48.280;14.292;2023-06-10T12:17:53;9.45;;;9.45;;
50417;SDS011;36346;48.280;14.292;2023-06-10T12:20:25;10.37;;;10.37;;
50417;SDS011;36346;48.280;14.292;2023-06-10T12:22:57;10.21;;;10.21;;
50417;SDS011;36346;48.280;14.292;2023-06-10T12:25:25;10.08;;;10.08;;
50417;SDS011;36346;48.280;14.292;2023-06-10T12:27:58;9.46;;;9.46;;
50417;SDS011;36346;48.280;14.292;2023-06-10T12:30:26;10.03;;;10.03;;
50417;SDS011;36346;48.280;14.292;2023-06-10T12:32:55;10.02;;;10.02;;
50417;SDS011;36346;48.280;14.292;2023-06-10T12:35:26;10.65;;;10.65;;
50417;SDS011;36346;48.280;14.292;2023-06-10T12:37:59;10.49;;;10.49;;
50417;SDS011;36346;48.280;14.292;2023-06-10T12:40:29;10.83;;;10.83;;
50417;SDS011;36346;48.280;14.292;2023-06-10T12:42:59;11.06;;;11.06;;
50417;SDS011;36346;48.280;14.292;2023-06-10T12:48:11;10.10;;;10.10;;
50417;SDS011;36346;48.280;14.292;2023-06-10T12:50:46;9.94;;;9.94;;
50417;SDS011;36346;48.280;14.292;2023-06-10T12:53:19;9.91;;;9.91;;
50417;SDS011;36346;48.280;14.292;2023-06-10T12:55:48;10.00;;;10.00;;
50417;SDS011;36346;48.280;14.292;2023-06-10T12:58:18;10.43;;;10.43;;
50417;SDS011;36346;48.280;14.292;2023-06-10T13:00:47;10.68;;;10.68;;
50417;SDS011;36346;48.280;14.292;2023-06-10T13:03:16;10.73;;;10.73;;
50417;SDS011;36346;48.280;14.292;2023-06-10T13:05:44;10.94;;;10.94;;
50417;SDS011;36346;48.280;14.292;2023-06-10T13:08:12;11.84;;;11.84;;
50417;SDS011;36346;48.280;14.292;2023-06-10T13:10:40;12.19;;;12.19;;
50417;SDS011;36346;48.280;14.292;2023-06-10T13:13:08;12.43;;;12.43;;
50417;SDS011;36346;48.280;14.292;2023-06-10T13:15:37;11.75;;;11.75;;
50417;SDS011;36346;48.280;14.292;2023-06-10T13:18:10;11.58;;;11.58;;
50417;SDS011;36346;48.280;14.292;2023-06-10T13:20:39;10.63;;;10.63;;
50417;SDS011;36346;48.280;14.292;2023-06-10T13:23:07;10.72;;;10.72;;
50417;SDS011;36346;48.280;14.292;2023-06-10T13:25:35;10.73;;;10.73;;
50417;SDS011;36346;48.280;14.292;2023-06-10T13:28:03;11.26;;;11.26;;
50417;SDS011;36346;48.280;14.292;2023-06-10T13:30:31;12.26;;;12.26;;
50417;SDS011;36346;48.280;14.292;2023-06-10T13:32:59;11.95;;;11.95;;
50417;SDS011;36346;48.280;14.292;2023-06-10T13:35:28;11.63;;;11.63;;
50417;SDS011;36346;48.280;14.292;2023-06-10T13:37:56;10.10;;;10.10;;
50417;SDS011;36346;48.280;14.292;2023-06-10T13:40:24;9.46;;;9.46;;
50417;SDS011;36346;48.280;14.292;2023-06-10T13:42:52;8.89;;;8.89;;
50417;SDS011;36346;48.280;14.292;2023-06-10T13:45:21;8.74;;;8.74;;
50417;SDS011;36346;48.280;14.292;2023-06-10T13:47:49;8.17;;;8.17;;
50417;SDS011;36346;48.280;14.292;2023-06-10T13:50:17;7.92;;;7.92;;
50417;SDS011;36346;48.280;14.292;2023-06-10T13:52:45;8.05;;;8.05;;
50417;SDS011;36346;48.280;14.292;2023-06-10T13:55:13;8.44;;;8.44;;
50417;SDS011;36346;48.280;14.292;2023-06-10T13:57:41;7.82;;;7.82;;
50417;SDS011;36346;48.280;14.292;2023-06-10T14:00:09;7.43;;;7.43;;
50417;SDS011;36346;48.280;14.292;2023-06-10T14:02:37;6.94;;;6.94;;
50417;SDS011;36346;48.280;14.292;2023-06-10T14:05:06;6.81;;;6.81;;
50417;SDS011;36346;48.280;14.292;2023-06-10T14:07:36;7.53;;;7.53;;
50417;SDS011;36346;48.280;14.292;2023-06-10T14:10:05;7.14;;;7.14;;
50417;SDS011;36346;48.280;14.292;2023-06-10T14:12:33;6.86;;;6.86;;
50417;SDS011;36346;48.280;14.292;2023-06-10T14:15:01;7.39;;;7.39;;
50417;SDS011;36346;48.280;14.292;2023-06-10T14:17:30;7.68;;;7.68;;
50417;SDS011;36346;48.280;14.292;2023-06-10T14:19:58;7.90;;;7.90;;
50417;SDS011;36346;48.280;14.292;2023-06-10T14:22:26;8.84;;;8.84;;
50417;SDS011;36346;48.280;14.292;2023-06-10T14:24:54;8.77;;;8.77;;
50417;SDS011;36346;48.280;14.292;2023-06-10T14:27:22;8.17;;;8.17;;
50417;SDS011;36346;48.280;14.292;2023-06-10T14:29:50;8.47;;;8.47;;
50417;SDS011;36346;48.280;14.292;2023-06-10T14:32:18;8.99;;;8.99;;
50417;SDS011;36346;48.280;14.292;2023-06-10T14:34:47;9.24;;;9.24;;
50417;SDS011;36346;48.280;14.292;2023-06-10T14:37:15;8.99;;;8.99;;
50417;SDS011;36346;48.280;14.292;2023-06-10T14:39:43;9.17;;;9.17;;
50417;SDS011;36346;48.280;14.292;2023-06-10T14:42:11;9.19;;;9.19;;
50417;SDS011;36346;48.280;14.292;2023-06-10T14:44:38;9.50;;;9.50;;
50417;SDS011;36346;48.280;14.292;2023-06-10T14:47:07;9.56;;;9.56;;
50417;SDS011;36346;48.280;14.292;2023-06-10T14:49:35;9.91;;;9.91;;
50417;SDS011;36346;48.280;14.292;2023-06-10T14:52:03;10.40;;;10.40;;